createdAt,value
2022-11-09T00:00:50.954Z,9.10
2022-11-09T00:03:18.119Z,9.10
2022-11-09T00:05:55.164Z,9.20
2022-11-09T00:08:21.890Z,9.10
2022-11-09T00:10:48.590Z,9.10
2022-11-09T00:13:15.316Z,9.10
2022-11-09T00:15:42.034Z,9.10
2022-11-09T00:18:08.689Z,9.20
2022-11-09T00:20:35.402Z,9.20
2022-11-09T00:23:02.072Z,9.20
2022-11-09T00:25:28.787Z,9.20
2022-11-09T00:27:55.445Z,9.20
2022-11-09T00:30:22.104Z,9.20
2022-11-09T00:32:48.794Z,9.10
2022-11-09T00:35:15.535Z,9.20
2022-11-09T00:37:42.298Z,9.20
2022-11-09T00:40:11.124Z,9.10
2022-11-09T00:42:37.851Z,9.10
2022-11-09T00:45:04.870Z,9.20
2022-11-09T00:47:33.156Z,9.30
2022-11-09T00:49:59.957Z,9.30
2022-11-09T00:52:26.630Z,9.30
2022-11-09T00:54:53.465Z,9.10
2022-11-09T00:57:20.183Z,9.20
2022-11-09T00:59:47.001Z,9.40
2022-11-09T01:02:13.930Z,9.40
2022-11-09T01:04:40.627Z,9.50
2022-11-09T01:07:08.646Z,9.50
2022-11-09T01:09:35.609Z,9.50
2022-11-09T01:12:02.471Z,9.60
2022-11-09T01:14:29.129Z,9.60
2022-11-09T01:16:55.836Z,9.60
2022-11-09T01:19:25.780Z,9.60
2022-11-09T01:21:52.970Z,9.60
2022-11-09T01:24:20.632Z,9.60
2022-11-09T01:26:47.947Z,9.60
2022-11-09T01:29:14.726Z,9.60
2022-11-09T01:31:41.663Z,9.80
2022-11-09T01:34:08.391Z,9.80
2022-11-09T01:36:35.130Z,9.90
2022-11-09T01:39:01.813Z,10.00
2022-11-09T01:41:29.310Z,10.00
2022-11-09T01:44:17.778Z,10.00
2022-11-09T01:47:01.185Z,9.80
2022-11-09T01:49:31.022Z,9.90
2022-11-09T01:52:36.692Z,9.90
2022-11-09T01:55:11.683Z,9.90
2022-11-09T01:57:53.568Z,9.90
2022-11-09T02:00:20.178Z,10.00
2022-11-09T02:02:56.880Z,10.20
2022-11-09T02:05:28.991Z,10.30
2022-11-09T02:07:56.719Z,10.50
2022-11-09T02:10:27.324Z,10.60
2022-11-09T02:12:57.802Z,10.70
2022-11-09T02:15:24.782Z,10.80
2022-11-09T02:17:54.391Z,10.90
2022-11-09T02:20:22.743Z,11.00
2022-11-09T02:22:49.523Z,11.10
2022-11-09T02:25:17.565Z,11.10
2022-11-09T02:27:45.621Z,11.10
2022-11-09T02:30:14.834Z,11.10
2022-11-09T02:32:41.596Z,11.00
2022-11-09T02:35:09.696Z,11.10
2022-11-09T02:37:45.163Z,11.00
2022-11-09T02:40:19.088Z,11.10
2022-11-09T02:42:46.217Z,11.10
2022-11-09T02:45:13.106Z,11.00
2022-11-09T02:47:41.463Z,11.00
2022-11-09T02:50:08.872Z,11.10
2022-11-09T02:52:36.439Z,11.10
2022-11-09T02:55:03.409Z,11.00
2022-11-09T02:57:30.395Z,11.00
2022-11-09T02:59:58.305Z,10.90
2022-11-09T03:02:25.043Z,11.00
2022-11-09T03:04:51.985Z,11.00
2022-11-09T03:07:20.106Z,11.10
2022-11-09T03:09:47.325Z,11.10
2022-11-09T03:12:29.179Z,11.10
2022-11-09T03:15:01.072Z,11.10
2022-11-09T03:17:28.010Z,11.10
2022-11-09T03:19:54.990Z,11.00
2022-11-09T03:22:21.805Z,11.10
2022-11-09T03:24:49.110Z,11.10
2022-11-09T03:27:16.477Z,11.20
2022-11-09T03:29:43.226Z,11.10
2022-11-09T03:32:10.420Z,11.10
2022-11-09T03:34:37.314Z,11.10
2022-11-09T03:37:04.581Z,11.10
2022-11-09T03:39:31.994Z,11.20
2022-11-09T03:41:58.895Z,11.20
2022-11-09T03:44:26.215Z,11.10
2022-11-09T03:46:53.145Z,11.10
2022-11-09T03:49:20.044Z,11.10
2022-11-09T03:51:46.856Z,11.10
2022-11-09T03:54:13.521Z,11.00
2022-11-09T03:56:40.340Z,11.00
2022-11-09T03:59:07.015Z,11.10
2022-11-09T04:01:33.775Z,11.00
2022-11-09T04:04:00.544Z,11.00
2022-11-09T04:06:27.291Z,11.00
2022-11-09T04:08:53.966Z,11.00
2022-11-09T04:11:20.726Z,11.10
2022-11-09T04:13:47.466Z,11.10
2022-11-09T04:16:14.281Z,11.10
2022-11-09T04:18:40.985Z,11.10
2022-11-09T04:21:07.760Z,11.00
2022-11-09T04:23:34.487Z,11.00
2022-11-09T04:26:01.182Z,11.10
2022-11-09T04:28:27.887Z,11.00
2022-11-09T04:30:54.585Z,11.00
2022-11-09T04:33:21.785Z,10.90
2022-11-09T04:35:48.818Z,10.80
2022-11-09T04:38:15.534Z,10.80
2022-11-09T04:40:42.625Z,10.90
2022-11-09T04:43:12.758Z,10.90
2022-11-09T04:45:39.905Z,10.90
2022-11-09T04:48:07.533Z,10.90
2022-11-09T04:50:34.705Z,10.90
2022-11-09T04:53:09.598Z,10.90
2022-11-09T04:55:37.001Z,10.90
2022-11-09T04:58:03.727Z,10.90
2022-11-09T05:00:31.086Z,10.90
2022-11-09T05:03:05.591Z,10.80
2022-11-09T05:05:37.104Z,10.90
2022-11-09T05:08:04.656Z,10.80
2022-11-09T05:10:32.099Z,10.80
2022-11-09T05:13:00.690Z,10.80
2022-11-09T05:15:27.565Z,10.80
2022-11-09T05:17:54.482Z,10.70
2022-11-09T05:20:21.211Z,10.70
2022-11-09T05:23:06.519Z,10.70
2022-11-09T05:25:33.737Z,10.80
2022-11-09T05:28:00.495Z,10.80
2022-11-09T05:30:27.254Z,10.80
2022-11-09T05:32:53.967Z,10.80
2022-11-09T05:35:20.722Z,10.80
2022-11-09T05:37:50.967Z,10.70
2022-11-09T05:40:19.035Z,10.70
2022-11-09T05:42:46.135Z,10.70
2022-11-09T05:48:05.086Z,10.70
2022-11-09T05:50:32.231Z,10.70
2022-11-09T05:53:13.591Z,10.70
2022-11-09T05:55:40.382Z,10.80
2022-11-09T05:58:07.533Z,10.80
2022-11-09T06:00:34.810Z,10.70
2022-11-09T06:03:08.427Z,10.80
2022-11-09T06:05:36.920Z,10.90
2022-11-09T06:08:11.329Z,10.90
2022-11-09T06:10:38.006Z,10.80
2022-11-09T06:13:05.000Z,10.90
2022-11-09T06:15:31.854Z,10.90
2022-11-09T06:17:59.121Z,10.80
2022-11-09T06:20:27.291Z,10.80
2022-11-09T06:23:03.150Z,10.70
2022-11-09T06:25:32.309Z,10.80
2022-11-09T06:27:59.333Z,10.90
2022-11-09T06:30:26.195Z,11.00
2022-11-09T06:33:01.655Z,11.00
2022-11-09T06:35:29.275Z,10.90
2022-11-09T06:37:57.691Z,11.00
2022-11-09T06:40:24.701Z,11.00
2022-11-09T06:42:51.751Z,11.00
2022-11-09T06:45:18.472Z,11.10
2022-11-09T06:47:45.473Z,11.10
2022-11-09T06:50:12.462Z,11.10
2022-11-09T06:52:39.146Z,11.10
2022-11-09T06:55:06.479Z,10.90
2022-11-09T06:57:33.178Z,10.80
2022-11-09T07:00:00.313Z,10.90
2022-11-09T07:02:27.361Z,11.00
2022-11-09T07:04:54.135Z,11.00
2022-11-09T07:07:26.431Z,11.10
2022-11-09T07:09:55.692Z,11.20
2022-11-09T07:12:22.434Z,11.10
2022-11-09T07:14:49.151Z,11.10
2022-11-09T07:17:15.852Z,11.10
2022-11-09T07:19:42.542Z,11.00
2022-11-09T07:22:09.250Z,11.00
2022-11-09T07:24:35.952Z,11.00
2022-11-09T07:27:02.676Z,11.10
2022-11-09T07:29:29.380Z,11.10
2022-11-09T07:31:56.224Z,11.20
2022-11-09T07:34:22.920Z,11.30
2022-11-09T07:36:49.618Z,11.30
2022-11-09T07:39:16.327Z,11.30
2022-11-09T07:41:43.046Z,11.30
2022-11-09T07:44:14.551Z,11.20
2022-11-09T07:46:41.246Z,11.20
2022-11-09T07:49:07.936Z,11.20
2022-11-09T07:51:35.402Z,11.10
2022-11-09T07:54:02.438Z,11.20
2022-11-09T07:56:29.223Z,11.20
2022-11-09T07:58:56.017Z,11.20
2022-11-09T08:01:22.870Z,11.30
2022-11-09T08:03:49.595Z,11.40
2022-11-09T08:06:18.515Z,11.30
2022-11-09T08:08:45.683Z,11.30
2022-11-09T08:11:12.749Z,11.40
2022-11-09T08:13:39.421Z,11.40
2022-11-09T08:16:06.272Z,11.40
2022-11-09T08:18:33.000Z,11.30
2022-11-09T08:21:03.503Z,11.30
2022-11-09T08:23:30.494Z,11.20
2022-11-09T08:25:57.203Z,11.20
2022-11-09T08:28:23.990Z,11.30
2022-11-09T08:30:59.487Z,11.40
2022-11-09T08:33:29.835Z,11.50
2022-11-09T08:35:56.855Z,11.50
2022-11-09T08:38:23.924Z,11.60
2022-11-09T08:40:50.819Z,11.60
2022-11-09T08:43:17.536Z,11.60
2022-11-09T08:45:44.599Z,11.70
2022-11-09T08:48:12.696Z,11.80
2022-11-09T08:50:39.441Z,11.90
2022-11-09T08:53:06.577Z,12.00
2022-11-09T08:55:33.984Z,12.10
2022-11-09T08:58:02.137Z,12.10
2022-11-09T09:00:29.627Z,12.20
2022-11-09T09:02:56.380Z,12.30
2022-11-09T09:05:23.597Z,12.30
2022-11-09T09:07:50.483Z,12.50
2022-11-09T09:10:17.236Z,12.70
2022-11-09T09:12:43.955Z,12.80
2022-11-09T09:15:10.839Z,12.90
2022-11-09T09:17:37.522Z,13.00
2022-11-09T09:20:04.894Z,13.20
2022-11-09T09:22:33.293Z,13.20
2022-11-09T09:25:00.335Z,13.30
2022-11-09T09:27:29.303Z,13.50
2022-11-09T09:29:56.645Z,13.70
2022-11-09T09:32:23.322Z,13.90
2022-11-09T09:34:50.055Z,14.20
2022-11-09T09:37:17.533Z,14.40
2022-11-09T09:39:44.804Z,14.50
2022-11-09T09:42:19.674Z,14.60
2022-11-09T09:45:08.346Z,14.90
2022-11-09T09:48:00.378Z,14.80
2022-11-09T09:50:31.670Z,15.00
2022-11-09T09:53:24.966Z,15.30
2022-11-09T09:56:00.706Z,15.50
2022-11-09T09:58:29.536Z,15.40
2022-11-09T10:01:07.404Z,15.40
2022-11-09T10:03:34.121Z,15.30
2022-11-09T10:06:29.716Z,15.40
2022-11-09T10:09:09.322Z,15.50
2022-11-09T10:12:00.772Z,15.60
2022-11-09T10:14:43.128Z,15.70
2022-11-09T10:17:47.571Z,15.80
2022-11-09T10:20:40.473Z,15.80
2022-11-09T10:23:14.754Z,15.90
2022-11-09T10:29:01.145Z,16.00
2022-11-09T10:31:23.787Z,15.90
2022-11-09T10:33:57.948Z,16.00
2022-11-09T10:36:33.811Z,16.10
2022-11-09T10:39:01.719Z,15.90
2022-11-09T10:41:47.190Z,15.80
2022-11-09T10:44:32.686Z,15.50
2022-11-09T10:47:19.225Z,15.60
2022-11-09T10:50:29.821Z,15.70
2022-11-09T10:53:21.130Z,15.80
2022-11-09T10:56:20.845Z,15.60
2022-11-09T10:59:29.479Z,15.60
2022-11-09T11:02:26.948Z,15.60
2022-11-09T11:05:18.379Z,15.40
2022-11-09T11:08:33.552Z,15.10
2022-11-09T11:11:33.845Z,15.10
2022-11-09T11:14:33.221Z,15.10
2022-11-09T11:17:27.393Z,15.00
2022-11-09T11:20:25.065Z,15.00
2022-11-09T11:23:17.344Z,14.90
2022-11-09T11:26:22.728Z,14.80
2022-11-09T11:29:33.998Z,14.70
2022-11-09T11:32:20.474Z,14.80
2022-11-09T11:35:29.563Z,14.80
2022-11-09T11:38:22.863Z,14.80
2022-11-09T11:41:37.482Z,14.80
2022-11-09T11:45:18.897Z,14.90
2022-11-09T11:48:44.858Z,14.70
2022-11-09T11:51:42.173Z,14.80
2022-11-09T11:54:40.761Z,14.80
2022-11-09T11:57:44.851Z,14.70
2022-11-09T12:00:35.779Z,14.70
2022-11-09T12:03:44.914Z,14.70
2022-11-09T12:06:46.831Z,14.80
2022-11-09T12:09:51.458Z,14.90
2022-11-09T12:12:57.207Z,14.90
2022-11-09T12:15:59.579Z,14.70
2022-11-09T12:18:56.662Z,14.60
2022-11-09T12:22:23.980Z,14.50
2022-11-09T12:25:19.221Z,14.50
2022-11-09T12:28:34.660Z,14.50
2022-11-09T12:31:44.261Z,14.40
2022-11-09T12:34:33.112Z,14.40
2022-11-09T12:37:24.186Z,14.40
2022-11-09T12:40:30.220Z,14.40
2022-11-09T12:43:29.798Z,14.40
2022-11-09T12:46:17.487Z,14.30
2022-11-09T12:49:05.670Z,14.10
2022-11-09T12:51:54.353Z,13.90
2022-11-09T12:54:47.714Z,13.80
2022-11-09T12:57:33.361Z,13.80
2022-11-09T13:00:39.714Z,13.70
2022-11-09T13:03:31.905Z,13.80
2022-11-09T13:06:37.389Z,13.70
2022-11-09T13:09:25.613Z,13.50
2022-11-09T13:12:25.988Z,13.50
2022-11-09T13:15:28.978Z,13.50
2022-11-09T13:18:45.865Z,13.40
2022-11-09T13:21:34.325Z,13.40
2022-11-09T13:24:31.877Z,13.50
2022-11-09T13:27:40.827Z,13.50
2022-11-09T13:30:28.288Z,13.50
2022-11-09T13:33:22.710Z,13.40
2022-11-09T13:36:08.208Z,13.50
2022-11-09T13:39:22.570Z,13.40
2022-11-09T13:42:34.249Z,13.40
2022-11-09T13:45:52.494Z,13.20
2022-11-09T13:48:45.012Z,12.90
2022-11-09T13:51:36.276Z,12.80
2022-11-09T13:54:36.554Z,12.90
2022-11-09T13:57:23.742Z,13.00
2022-11-09T14:00:24.604Z,12.90
2022-11-09T14:03:24.955Z,12.90
2022-11-09T14:06:12.461Z,12.80
2022-11-09T14:08:58.823Z,12.70
2022-11-09T14:12:15.267Z,12.70
2022-11-09T14:15:00.488Z,12.70
2022-11-09T14:18:37.035Z,12.70
2022-11-09T14:21:43.987Z,12.60
2022-11-09T14:24:34.509Z,12.60
2022-11-09T14:27:23.250Z,12.50
2022-11-09T14:30:24.034Z,12.50
2022-11-09T14:33:27.378Z,12.40
2022-11-09T14:36:13.638Z,12.40
2022-11-09T14:39:02.820Z,12.40
2022-11-09T14:41:48.873Z,12.40
2022-11-09T14:44:40.346Z,12.40
2022-11-09T14:47:33.170Z,12.50
2022-11-09T14:50:31.695Z,12.40
2022-11-09T14:53:24.697Z,12.40
2022-11-09T14:56:12.784Z,12.30
2022-11-09T14:58:58.781Z,12.30
2022-11-09T15:02:05.108Z,12.30
2022-11-09T15:05:06.208Z,12.30
2022-11-09T15:07:51.840Z,12.30
2022-11-09T15:10:38.403Z,12.20
2022-11-09T15:13:37.491Z,12.20
2022-11-09T15:16:27.019Z,12.10
2022-11-09T15:19:24.036Z,12.10
2022-11-09T15:22:48.116Z,12.10
2022-11-09T15:25:35.304Z,12.00
2022-11-09T15:28:26.961Z,12.00
2022-11-09T15:31:16.396Z,12.00
2022-11-09T15:34:02.176Z,11.90
2022-11-09T15:36:54.748Z,11.90
2022-11-09T15:39:39.980Z,11.80
2022-11-09T15:42:26.782Z,11.70
2022-11-09T15:45:18.548Z,11.70
2022-11-09T15:48:04.277Z,11.70
2022-11-09T15:50:49.957Z,11.60
2022-11-09T15:53:35.120Z,11.60
2022-11-09T15:56:23.487Z,11.60
2022-11-09T15:59:21.717Z,11.60
2022-11-09T16:02:10.912Z,11.60
2022-11-09T16:04:56.024Z,11.50
2022-11-09T16:07:53.710Z,11.40
2022-11-09T16:10:40.410Z,11.30
2022-11-09T16:13:25.879Z,11.30
2022-11-09T16:16:13.500Z,11.20
2022-11-09T16:18:59.533Z,11.20
2022-11-09T16:21:45.182Z,11.10
2022-11-09T16:24:30.634Z,11.00
2022-11-09T16:27:47.844Z,11.00
2022-11-09T16:30:21.779Z,10.90
2022-11-09T16:33:06.920Z,10.90
2022-11-09T16:35:53.738Z,10.80
2022-11-09T16:38:43.194Z,10.60
2022-11-09T16:41:30.524Z,10.60
2022-11-09T16:44:20.069Z,10.70
2022-11-09T16:47:08.188Z,10.70
2022-11-09T16:49:53.611Z,10.60
2022-11-09T16:52:39.044Z,10.60
2022-11-09T16:55:24.508Z,10.60
2022-11-09T16:58:10.198Z,10.50
2022-11-09T17:01:11.314Z,10.50
2022-11-09T17:03:57.810Z,10.50
2022-11-09T17:06:43.108Z,10.60
2022-11-09T17:09:32.527Z,10.60
2022-11-09T17:12:18.032Z,10.50
2022-11-09T17:15:03.792Z,10.40
2022-11-09T17:17:48.953Z,10.40
2022-11-09T17:20:34.635Z,10.40
2022-11-09T17:23:20.310Z,10.30
2022-11-09T17:26:06.784Z,10.30
2022-11-09T17:28:52.406Z,10.10
2022-11-09T17:31:38.288Z,10.10
2022-11-09T17:34:23.949Z,10.00
2022-11-09T17:37:09.473Z,10.10
2022-11-09T17:39:54.880Z,10.00
2022-11-09T17:42:40.426Z,10.00
2022-11-09T17:45:26.517Z,9.90
2022-11-09T17:48:11.694Z,9.90
2022-11-09T17:50:58.442Z,9.80
2022-11-09T17:53:44.154Z,9.80
2022-11-09T17:56:30.526Z,9.80
2022-11-09T17:59:15.775Z,9.80
2022-11-09T18:02:01.333Z,9.90
2022-11-09T18:04:46.975Z,10.00
2022-11-09T18:07:32.937Z,10.10
2022-11-09T18:10:19.023Z,10.10
2022-11-09T18:13:05.128Z,10.20
2022-11-09T18:15:50.639Z,10.20
2022-11-09T18:18:36.372Z,10.20
2022-11-09T18:21:23.374Z,10.20
2022-11-09T18:24:09.019Z,10.20
2022-11-09T18:26:54.488Z,10.10
2022-11-09T18:29:40.002Z,10.00
2022-11-09T18:32:25.471Z,10.00
2022-11-09T18:35:10.994Z,10.10
2022-11-09T18:37:56.770Z,10.10
2022-11-09T18:40:42.176Z,10.10
2022-11-09T18:43:28.428Z,10.10
2022-11-09T18:46:16.035Z,10.20
2022-11-09T18:49:01.730Z,10.10
2022-11-09T18:51:47.056Z,10.20
2022-11-09T18:54:32.490Z,10.00
2022-11-09T18:57:19.950Z,10.10
2022-11-09T19:00:06.679Z,10.10
2022-11-09T19:02:52.079Z,10.10
2022-11-09T19:05:40.235Z,10.10
2022-11-09T19:08:44.595Z,10.20
2022-11-09T19:11:31.217Z,10.00
2022-11-09T19:14:16.766Z,10.10
2022-11-09T19:17:02.310Z,10.10
2022-11-09T19:19:47.898Z,10.10
2022-11-09T19:22:36.326Z,10.20
2022-11-09T19:25:21.820Z,10.10
2022-11-09T19:28:07.183Z,10.20
2022-11-09T19:30:52.527Z,10.20
2022-11-09T19:33:38.050Z,10.20
2022-11-09T19:36:30.664Z,10.20
2022-11-09T19:39:17.731Z,10.20
2022-11-09T19:42:02.808Z,10.20
2022-11-09T19:44:52.213Z,10.30
2022-11-09T19:47:41.831Z,10.40
2022-11-09T19:50:26.955Z,10.40
2022-11-09T19:53:12.572Z,10.40
2022-11-09T19:56:04.571Z,10.40
2022-11-09T19:58:50.749Z,10.40
2022-11-09T20:01:36.243Z,10.40
2022-11-09T20:04:21.664Z,10.20
2022-11-09T20:07:06.984Z,10.10
2022-11-09T20:09:52.246Z,10.20
2022-11-09T20:12:49.712Z,10.20
2022-11-09T20:15:36.264Z,10.30
2022-11-09T20:18:23.786Z,10.20
2022-11-09T20:21:09.155Z,10.30
2022-11-09T20:23:54.852Z,10.30
2022-11-09T20:26:41.192Z,10.30
2022-11-09T20:29:26.514Z,10.20
2022-11-09T20:32:12.467Z,10.20
2022-11-09T20:34:57.742Z,10.20
2022-11-09T20:37:43.167Z,10.20
2022-11-09T20:40:28.557Z,10.20
2022-11-09T20:43:13.799Z,10.20
2022-11-09T20:46:17.318Z,10.20
2022-11-09T20:49:03.203Z,10.30
2022-11-09T20:51:49.026Z,10.30
2022-11-09T20:54:34.712Z,10.20
2022-11-09T20:57:20.285Z,10.10
2022-11-09T21:00:07.661Z,10.20
2022-11-09T21:02:52.929Z,10.10
2022-11-09T21:05:38.307Z,10.10
2022-11-09T21:08:24.396Z,10.20
2022-11-09T21:11:09.809Z,10.30
2022-11-09T21:13:55.880Z,10.30
2022-11-09T21:16:41.302Z,10.30
2022-11-09T21:19:26.798Z,10.20
2022-11-09T21:22:12.801Z,10.30
2022-11-09T21:25:17.044Z,10.40
2022-11-09T21:28:21.176Z,10.40
2022-11-09T21:31:06.990Z,10.40
2022-11-09T21:33:53.407Z,10.40
2022-11-09T21:36:38.408Z,10.30
2022-11-09T21:39:24.019Z,10.10
2022-11-09T21:42:11.845Z,9.90
2022-11-09T21:44:57.055Z,9.80
2022-11-09T21:47:42.899Z,9.80
2022-11-09T21:50:28.023Z,9.80
2022-11-09T21:53:13.422Z,9.80
2022-11-09T21:56:01.961Z,9.70
2022-11-09T21:58:48.290Z,9.80
2022-11-09T22:01:33.859Z,9.80
2022-11-09T22:04:19.458Z,9.80
2022-11-09T22:07:04.772Z,9.90
2022-11-09T22:10:09.348Z,9.90
2022-11-09T22:13:13.662Z,9.80
2022-11-09T22:16:09.404Z,9.70
2022-11-09T22:19:13.578Z,9.70
2022-11-09T22:21:58.828Z,9.70
2022-11-09T22:24:44.603Z,9.70
2022-11-09T22:27:31.417Z,9.70
2022-11-09T22:30:17.054Z,9.80
2022-11-09T22:33:02.527Z,9.80
2022-11-09T22:35:59.533Z,9.90
2022-11-09T22:38:45.284Z,9.80
2022-11-09T22:41:30.523Z,9.80
2022-11-09T22:44:16.008Z,9.90
2022-11-09T22:47:01.464Z,9.90
2022-11-09T22:49:46.967Z,9.90
2022-11-09T22:52:32.276Z,9.90
2022-11-09T22:55:18.449Z,9.90
2022-11-09T22:58:04.371Z,9.90
2022-11-09T23:00:50.411Z,9.90
2022-11-09T23:03:35.836Z,9.70
2022-11-09T23:06:22.364Z,9.70
2022-11-09T23:09:07.723Z,9.80
2022-11-09T23:11:53.259Z,9.80
2022-11-09T23:14:57.216Z,9.80
2022-11-09T23:18:00.963Z,9.80
2022-11-09T23:20:46.248Z,9.80
2022-11-09T23:23:31.689Z,9.80
2022-11-09T23:26:17.447Z,9.80
2022-11-09T23:29:02.898Z,9.70
2022-11-09T23:31:48.413Z,9.70
2022-11-09T23:34:33.819Z,9.70
2022-11-09T23:37:19.190Z,9.70
2022-11-09T23:40:05.340Z,9.70
2022-11-09T23:42:50.410Z,9.70
2022-11-09T23:45:37.798Z,9.70
2022-11-09T23:48:22.951Z,9.70
2022-11-09T23:51:08.867Z,9.70
2022-11-09T23:53:54.100Z,9.70
2022-11-09T23:56:39.558Z,9.70
2022-11-09T23:59:25.095Z,9.70
